createdAt,value
2019-01-06T00:01:34.949Z,2.67
2019-01-06T00:04:13.674Z,2.97
2019-01-06T00:06:43.650Z,2.63
2019-01-06T00:09:16.365Z,3.87
2019-01-06T00:11:52.263Z,2.83
2019-01-06T00:14:25.043Z,2.37
2019-01-06T00:16:55.017Z,2.83
2019-01-06T00:19:43.541Z,1.73
2019-01-06T00:22:13.521Z,2.70
2019-01-06T00:24:58.530Z,3.17
2019-01-06T00:27:28.497Z,2.13
2019-01-06T00:29:58.469Z,2.73
2019-01-06T00:32:35.719Z,2.50
2019-01-06T00:35:06.078Z,3.13
2019-01-06T00:37:52.599Z,1.90
2019-01-06T00:40:31.764Z,2.90
2019-01-06T00:43:01.746Z,2.30
2019-01-06T00:45:32.033Z,1.87
2019-01-06T00:48:02.010Z,2.00
2019-01-06T00:50:48.282Z,2.37
2019-01-06T00:53:18.247Z,1.97
2019-01-06T00:56:04.881Z,2.37
2019-01-06T00:58:46.829Z,2.60
2019-01-06T01:01:33.352Z,2.57
2019-01-06T01:04:19.777Z,2.40
2019-01-06T01:07:06.017Z,2.60
2019-01-06T01:09:45.133Z,2.60
2019-01-06T01:12:25.806Z,2.33
2019-01-06T01:15:07.944Z,2.37
2019-01-06T01:17:54.265Z,2.60
2019-01-06T01:20:30.230Z,2.40
2019-01-06T01:23:00.773Z,2.13
2019-01-06T01:25:42.516Z,2.20
2019-01-06T01:28:21.356Z,2.93
2019-01-06T01:30:54.021Z,2.60
2019-01-06T01:33:42.106Z,2.63
2019-01-06T01:36:28.346Z,2.27
2019-01-06T01:38:58.314Z,2.73
2019-01-06T01:41:44.528Z,2.47
2019-01-06T01:44:23.349Z,2.73
2019-01-06T01:46:59.020Z,2.10
2019-01-06T01:49:44.201Z,2.43
2019-01-06T01:52:20.250Z,3.00
2019-01-06T01:54:53.139Z,2.90
2019-01-06T01:57:23.113Z,2.60
2019-01-06T02:00:04.958Z,2.80
2019-01-06T02:02:53.198Z,2.47
2019-01-06T02:05:23.176Z,3.30
2019-01-06T02:07:56.234Z,2.70
2019-01-06T02:10:26.217Z,3.70
2019-01-06T02:13:09.549Z,3.00
2019-01-06T02:15:48.414Z,2.70
2019-01-06T02:18:18.715Z,2.70
2019-01-06T02:20:48.680Z,2.67
2019-01-06T02:23:18.645Z,2.23
2019-01-06T02:25:48.629Z,2.73
2019-01-06T02:28:18.609Z,2.40
2019-01-06T02:31:05.192Z,2.37
2019-01-06T02:33:51.760Z,2.83
2019-01-06T02:36:38.308Z,2.30
2019-01-06T02:39:08.283Z,2.60
2019-01-06T02:41:41.217Z,2.70
2019-01-06T02:44:14.155Z,2.03
2019-01-06T02:47:00.481Z,2.40
2019-01-06T02:49:36.610Z,2.47
2019-01-06T02:52:12.632Z,2.03
2019-01-06T02:54:48.637Z,2.60
2019-01-06T02:57:27.545Z,2.40
2019-01-06T02:59:57.497Z,2.90
2019-01-06T03:02:43.755Z,2.40
2019-01-06T03:05:30.280Z,2.50
2019-01-06T03:08:16.796Z,2.90
2019-01-06T03:10:55.545Z,2.43
2019-01-06T03:13:37.819Z,2.20
2019-01-06T03:16:24.032Z,2.50
2019-01-06T03:19:09.114Z,2.53
2019-01-06T03:21:39.078Z,2.60
2019-01-06T03:24:09.047Z,2.50
2019-01-06T03:26:55.516Z,3.00
2019-01-06T03:29:44.391Z,3.03
2019-01-06T03:32:30.779Z,2.47
2019-01-06T03:35:00.746Z,1.97
2019-01-06T03:37:33.842Z,1.87
2019-01-06T03:40:03.810Z,3.07
2019-01-06T03:42:33.811Z,2.33
2019-01-06T03:45:06.777Z,2.53
2019-01-06T03:47:36.754Z,1.80
2019-01-06T03:50:10.942Z,1.70
2019-01-06T03:52:49.693Z,2.30
2019-01-06T03:55:35.304Z,2.27
2019-01-06T03:58:05.287Z,1.77
2019-01-06T04:00:41.073Z,2.00
2019-01-06T04:03:11.055Z,2.40
2019-01-06T04:05:52.810Z,1.90
2019-01-06T04:08:39.308Z,2.00
2019-01-06T04:11:15.399Z,1.97
2019-01-06T04:13:43.897Z,1.70
2019-01-06T04:16:16.844Z,2.20
2019-01-06T04:18:52.858Z,1.70
2019-01-06T04:21:31.553Z,1.90
2019-01-06T04:24:01.512Z,1.90
2019-01-06T04:26:47.792Z,1.60
2019-01-06T04:29:20.877Z,2.23
2019-01-06T04:31:50.851Z,2.10
2019-01-06T04:34:26.798Z,2.03
2019-01-06T04:37:13.045Z,2.40
2019-01-06T04:39:46.150Z,2.13
2019-01-06T04:42:18.830Z,1.27
2019-01-06T04:45:00.825Z,2.03
2019-01-06T04:47:39.749Z,1.93
2019-01-06T04:50:12.769Z,1.87
2019-01-06T04:52:51.931Z,2.00
2019-01-06T04:55:25.041Z,2.13
2019-01-06T04:58:11.533Z,1.90
2019-01-06T05:00:41.507Z,1.83
2019-01-06T05:03:11.490Z,2.10
2019-01-06T05:05:53.384Z,2.10
2019-01-06T05:08:39.730Z,1.80
2019-01-06T05:11:27.965Z,1.70
2019-01-06T05:14:12.885Z,1.73
2019-01-06T05:17:01.330Z,1.80
2019-01-06T05:19:31.302Z,1.90
2019-01-06T05:22:17.751Z,1.67
2019-01-06T05:25:04.313Z,1.77
2019-01-06T05:27:40.382Z,2.17
2019-01-06T05:30:10.349Z,1.63
2019-01-06T05:32:56.829Z,1.80
2019-01-06T05:35:43.505Z,2.33
2019-01-06T05:38:25.927Z,1.33
2019-01-06T05:40:55.889Z,1.70
2019-01-06T05:43:25.870Z,1.83
2019-01-06T05:45:58.799Z,2.17
2019-01-06T05:48:37.801Z,1.90
2019-01-06T05:51:22.697Z,2.13
2019-01-06T05:54:10.642Z,1.97
2019-01-06T05:56:43.256Z,1.87
2019-01-06T05:59:13.234Z,2.07
2019-01-06T06:01:55.402Z,1.83
2019-01-06T06:04:31.362Z,2.10
2019-01-06T06:07:17.885Z,2.20
2019-01-06T06:09:50.873Z,2.00
2019-01-06T06:12:26.870Z,2.27
2019-01-06T06:15:14.908Z,2.83
2019-01-06T06:17:47.354Z,2.73
2019-01-06T06:20:32.514Z,2.33
2019-01-06T06:23:15.737Z,2.40
2019-01-06T06:25:48.429Z,2.30
2019-01-06T06:28:18.405Z,2.30
2019-01-06T06:30:48.373Z,3.20
2019-01-06T06:33:27.198Z,2.27
2019-01-06T06:35:59.631Z,2.33
2019-01-06T06:38:31.194Z,2.60
2019-01-06T06:41:04.377Z,3.20
2019-01-06T06:43:40.352Z,2.70
2019-01-06T06:46:26.652Z,2.47
2019-01-06T06:48:59.566Z,2.03
2019-01-06T06:51:32.454Z,3.07
2019-01-06T06:54:02.453Z,3.33
2019-01-06T06:56:38.386Z,2.53
2019-01-06T06:59:08.358Z,2.87
2019-01-06T07:01:45.978Z,2.50
2019-01-06T07:04:34.414Z,2.70
2019-01-06T07:07:07.306Z,2.60
2019-01-06T07:09:39.991Z,3.10
2019-01-06T07:12:26.495Z,3.23
2019-01-06T07:14:56.498Z,3.27
2019-01-06T07:17:54.630Z,2.90
2019-01-06T07:20:26.469Z,2.97
2019-01-06T07:23:02.318Z,3.03
2019-01-06T07:25:48.850Z,3.20
2019-01-06T07:28:36.455Z,2.40
2019-01-06T07:31:06.433Z,3.13
2019-01-06T07:33:45.586Z,3.23
2019-01-06T07:36:21.651Z,3.20
2019-01-06T07:38:54.441Z,2.63
2019-01-06T07:41:33.596Z,2.70
2019-01-06T07:44:13.107Z,3.83
2019-01-06T07:46:45.909Z,4.30
2019-01-06T07:49:21.813Z,3.53
2019-01-06T07:52:00.961Z,2.70
2019-01-06T07:54:30.930Z,3.17
2019-01-06T07:57:17.544Z,3.43
2019-01-06T07:59:48.484Z,3.17
2019-01-06T08:02:34.773Z,2.77
2019-01-06T08:05:07.597Z,3.40
2019-01-06T08:07:55.672Z,2.70
2019-01-06T08:10:42.230Z,2.97
2019-01-06T08:13:14.897Z,2.70
2019-01-06T08:15:55.251Z,2.70
2019-01-06T08:18:25.229Z,3.20
2019-01-06T08:21:01.764Z,3.00
2019-01-06T08:23:48.248Z,2.73
2019-01-06T08:26:30.372Z,2.87
2019-01-06T08:29:15.989Z,2.93
2019-01-06T08:32:04.017Z,3.30
2019-01-06T08:34:40.384Z,4.20
2019-01-06T08:37:13.277Z,3.60
2019-01-06T08:39:49.275Z,3.47
2019-01-06T08:42:26.072Z,3.53
2019-01-06T08:44:58.314Z,3.30
2019-01-06T08:47:31.220Z,4.30
2019-01-06T08:50:02.371Z,3.43
2019-01-06T08:52:32.328Z,4.10
2019-01-06T08:55:11.622Z,3.83
2019-01-06T08:57:42.774Z,4.23
2019-01-06T09:00:15.465Z,4.63
2019-01-06T09:02:55.653Z,3.37
2019-01-06T09:05:28.515Z,3.73
2019-01-06T09:08:00.446Z,3.60
2019-01-06T09:10:35.925Z,3.83
2019-01-06T09:13:09.428Z,3.60
2019-01-06T09:15:45.142Z,2.97
2019-01-06T09:18:34.054Z,3.80
2019-01-06T09:21:20.307Z,3.63
2019-01-06T09:24:08.801Z,3.60
2019-01-06T09:26:44.625Z,4.13
2019-01-06T09:29:24.295Z,3.63
2019-01-06T09:32:02.639Z,4.37
2019-01-06T09:34:37.225Z,4.37
2019-01-06T09:37:28.214Z,4.43
2019-01-06T09:40:10.090Z,4.47
2019-01-06T09:43:01.907Z,4.37
2019-01-06T09:45:39.885Z,4.90
2019-01-06T09:48:18.852Z,4.10
2019-01-06T09:50:48.825Z,4.23
2019-01-06T09:53:23.601Z,3.43
2019-01-06T09:56:10.706Z,3.47
2019-01-06T09:59:00.915Z,4.67
2019-01-06T10:01:30.917Z,4.03
2019-01-06T10:04:09.614Z,4.13
2019-01-06T10:06:57.558Z,4.07
2019-01-06T10:09:33.342Z,4.07
2019-01-06T10:12:19.671Z,5.37
2019-01-06T10:15:09.159Z,5.00
2019-01-06T10:17:57.682Z,6.33
2019-01-06T10:20:28.735Z,5.93
2019-01-06T10:23:01.197Z,5.20
2019-01-06T10:25:40.087Z,5.73
2019-01-06T10:28:19.273Z,5.53
2019-01-06T10:30:56.358Z,4.83
2019-01-06T10:33:30.745Z,6.27
2019-01-06T10:36:05.690Z,6.20
2019-01-06T10:38:54.244Z,5.60
2019-01-06T10:41:46.709Z,7.60
2019-01-06T10:44:33.714Z,6.40
2019-01-06T10:47:04.854Z,6.10
2019-01-06T10:49:46.886Z,6.20
2019-01-06T10:52:19.015Z,6.77
2019-01-06T10:55:00.250Z,6.43
2019-01-06T10:57:31.767Z,6.70
2019-01-06T11:00:17.674Z,6.20
2019-01-06T11:02:56.402Z,6.73
2019-01-06T11:05:43.842Z,7.83
2019-01-06T11:08:17.955Z,6.20
2019-01-06T11:11:00.122Z,7.10
2019-01-06T11:13:41.250Z,9.07
2019-01-06T11:16:15.021Z,7.90
2019-01-06T11:18:55.988Z,7.67
2019-01-06T11:21:29.903Z,7.30
2019-01-06T11:24:11.045Z,6.90
2019-01-06T11:26:52.729Z,6.93
2019-01-06T11:29:42.896Z,7.33
2019-01-06T11:32:22.152Z,8.43
2019-01-06T11:34:56.791Z,8.47
2019-01-06T11:37:33.087Z,9.30
2019-01-06T11:40:06.110Z,7.93
2019-01-06T11:42:38.858Z,7.23
2019-01-06T11:45:14.565Z,6.93
2019-01-06T11:47:50.527Z,8.80
2019-01-06T11:50:23.035Z,8.07
2019-01-06T11:52:56.929Z,7.43
2019-01-06T11:55:29.627Z,6.87
2019-01-06T11:58:19.628Z,8.57
2019-01-06T12:00:51.245Z,7.77
2019-01-06T12:03:38.849Z,7.43
2019-01-06T12:06:11.836Z,7.67
2019-01-06T12:08:41.820Z,8.30
2019-01-06T12:11:11.813Z,7.13
2019-01-06T12:13:43.390Z,8.17
2019-01-06T12:16:23.450Z,7.17
2019-01-06T12:19:02.165Z,7.07
2019-01-06T12:21:40.345Z,7.20
2019-01-06T12:24:28.745Z,6.53
2019-01-06T12:27:18.487Z,6.27
2019-01-06T12:29:51.265Z,6.37
2019-01-06T12:32:36.439Z,6.60
2019-01-06T12:35:23.197Z,6.00
2019-01-06T12:37:53.163Z,6.60
2019-01-06T12:40:27.558Z,5.77
2019-01-06T12:43:13.808Z,5.97
2019-01-06T12:45:50.713Z,6.90
2019-01-06T12:48:27.389Z,7.00
2019-01-06T12:51:09.907Z,6.30
2019-01-06T12:53:54.871Z,5.67
2019-01-06T12:56:31.565Z,7.30
2019-01-06T12:59:10.217Z,6.27
2019-01-06T13:01:41.761Z,6.50
2019-01-06T13:04:29.369Z,4.37
2019-01-06T13:07:15.658Z,7.77
2019-01-06T13:10:02.146Z,6.80
2019-01-06T13:12:48.609Z,5.77
2019-01-06T13:15:33.618Z,6.93
2019-01-06T13:18:04.890Z,7.07
2019-01-06T13:20:53.879Z,6.77
2019-01-06T13:23:34.524Z,7.07
2019-01-06T13:26:07.064Z,7.83
2019-01-06T13:28:53.729Z,7.07
2019-01-06T13:31:23.701Z,5.60
2019-01-06T13:33:57.833Z,7.73
2019-01-06T13:36:44.250Z,6.90
2019-01-06T13:39:24.269Z,8.10
2019-01-06T13:42:10.528Z,6.60
2019-01-06T13:44:40.773Z,6.57
2019-01-06T13:47:27.071Z,6.47
2019-01-06T13:50:09.236Z,6.60
2019-01-06T13:52:39.219Z,6.27
2019-01-06T13:55:25.866Z,7.07
2019-01-06T13:58:13.665Z,6.77
2019-01-06T14:01:00.466Z,7.33
2019-01-06T14:03:48.649Z,6.27
2019-01-06T14:06:37.253Z,5.23
2019-01-06T14:09:23.842Z,6.20
2019-01-06T14:12:05.779Z,5.67
2019-01-06T14:14:50.849Z,6.23
2019-01-06T14:17:32.493Z,5.90
2019-01-06T14:20:20.742Z,5.73
2019-01-06T14:23:07.336Z,6.33
2019-01-06T14:25:43.326Z,4.53
2019-01-06T14:28:44.186Z,6.23
2019-01-06T14:31:24.291Z,6.20
2019-01-06T14:33:55.438Z,6.53
2019-01-06T14:36:40.633Z,6.17
2019-01-06T14:39:12.590Z,5.70
2019-01-06T14:41:58.877Z,5.77
2019-01-06T14:44:34.649Z,6.27
2019-01-06T14:47:14.589Z,6.20
2019-01-06T14:50:04.145Z,6.10
2019-01-06T14:52:49.197Z,6.30
2019-01-06T14:55:35.634Z,5.63
2019-01-06T14:58:05.675Z,7.03
2019-01-06T15:00:41.687Z,7.30
2019-01-06T15:03:14.387Z,7.10
2019-01-06T15:05:44.364Z,7.30
2019-01-06T15:08:32.393Z,6.50
2019-01-06T15:11:18.654Z,6.40
2019-01-06T15:14:01.034Z,6.97
2019-01-06T15:16:47.258Z,6.20
2019-01-06T15:19:33.666Z,5.67
2019-01-06T15:22:09.638Z,6.57
2019-01-06T15:24:39.668Z,6.63
2019-01-06T15:27:26.202Z,6.60
2019-01-06T15:32:52.631Z,7.57
2019-01-06T15:35:22.613Z,8.20
2019-01-06T15:37:52.588Z,8.90
2019-01-06T15:40:31.745Z,8.80
2019-01-06T15:43:01.722Z,8.67
2019-01-06T15:45:47.958Z,8.20
2019-01-06T15:48:34.242Z,9.40
2019-01-06T15:51:12.897Z,8.27
2019-01-06T15:53:45.626Z,9.97
2019-01-06T15:56:21.609Z,10.60
2019-01-06T15:58:54.492Z,9.33
2019-01-06T16:01:39.634Z,8.63
2019-01-06T16:04:27.858Z,9.87
2019-01-06T16:07:00.849Z,9.50
2019-01-06T16:09:40.013Z,10.73
2019-01-06T16:12:10.002Z,9.90
2019-01-06T16:14:58.178Z,7.90
2019-01-06T16:17:34.145Z,7.87
2019-01-06T16:20:07.154Z,8.20
2019-01-06T16:22:37.221Z,7.37
2019-01-06T16:25:15.310Z,7.20
2019-01-06T16:27:48.445Z,7.27
2019-01-06T16:30:21.081Z,7.37
2019-01-06T16:33:07.694Z,7.53
2019-01-06T16:35:46.527Z,7.93
2019-01-06T16:38:19.453Z,9.17
2019-01-06T16:41:05.886Z,9.63
2019-01-06T16:43:44.797Z,10.73
2019-01-06T16:46:31.172Z,12.63
2019-01-06T16:49:05.121Z,11.47
2019-01-06T16:51:37.796Z,11.67
2019-01-06T16:54:23.892Z,10.87
2019-01-06T16:57:00.109Z,12.07
2019-01-06T16:59:39.359Z,11.33
2019-01-06T17:02:09.349Z,12.90
2019-01-06T17:04:54.332Z,10.83
2019-01-06T17:07:40.625Z,11.97
2019-01-06T17:10:13.886Z,10.27
2019-01-06T17:13:00.193Z,11.97
2019-01-06T17:15:30.174Z,13.23
2019-01-06T17:18:01.487Z,15.83
2019-01-06T17:20:40.381Z,13.83
2019-01-06T17:23:23.171Z,12.37
2019-01-06T17:25:57.541Z,11.77
2019-01-06T17:28:44.251Z,9.57
2019-01-06T17:31:20.046Z,10.03
2019-01-06T17:33:58.981Z,9.43
2019-01-06T17:36:46.990Z,10.77
2019-01-06T17:39:16.987Z,10.57
2019-01-06T17:41:47.037Z,11.00
2019-01-06T17:44:29.292Z,11.57
2019-01-06T17:47:15.624Z,11.33
2019-01-06T17:50:03.642Z,11.37
2019-01-06T17:52:33.617Z,13.47
2019-01-06T17:55:06.280Z,12.13
2019-01-06T17:57:45.465Z,12.87
2019-01-06T18:00:31.802Z,12.23
2019-01-06T18:03:09.813Z,11.60
2019-01-06T18:05:48.812Z,11.77
2019-01-06T18:08:18.818Z,11.10
2019-01-06T18:10:59.598Z,10.87
2019-01-06T18:13:39.067Z,12.10
2019-01-06T18:16:25.192Z,11.37
2019-01-06T18:19:11.645Z,13.00
2019-01-06T18:21:50.662Z,14.30
2019-01-06T18:24:35.660Z,18.00
2019-01-06T18:27:22.074Z,17.27
2019-01-06T18:29:58.015Z,15.67
2019-01-06T18:32:33.911Z,12.37
2019-01-06T18:35:24.274Z,12.47
2019-01-06T18:38:06.206Z,11.77
2019-01-06T18:40:48.361Z,11.47
2019-01-06T18:43:21.060Z,11.47
2019-01-06T18:45:57.092Z,14.23
2019-01-06T18:48:27.086Z,12.93
2019-01-06T18:51:15.301Z,13.70
2019-01-06T18:53:47.953Z,13.10
2019-01-06T18:56:36.031Z,12.77
2019-01-06T18:59:18.109Z,13.00
2019-01-06T19:02:04.369Z,13.43
2019-01-06T19:04:40.381Z,12.13
2019-01-06T19:07:25.318Z,13.63
2019-01-06T19:10:12.882Z,14.83
2019-01-06T19:13:02.469Z,13.33
2019-01-06T19:15:29.373Z,13.27
2019-01-06T19:18:11.371Z,13.00
2019-01-06T19:20:58.146Z,13.33
2019-01-06T19:23:28.138Z,13.67
2019-01-06T19:25:58.134Z,18.27
2019-01-06T19:28:28.131Z,19.40
2019-01-06T19:31:14.451Z,16.17
2019-01-06T19:33:44.470Z,14.70
2019-01-06T19:36:29.717Z,14.57
2019-01-06T19:39:16.249Z,12.83
2019-01-06T19:42:03.984Z,13.97
2019-01-06T19:44:33.986Z,14.07
2019-01-06T19:47:19.386Z,13.23
2019-01-06T19:50:03.893Z,13.07
2019-01-06T19:52:33.874Z,14.10
2019-01-06T19:55:12.108Z,14.57
2019-01-06T19:57:47.190Z,14.73
2019-01-06T20:00:21.381Z,15.37
2019-01-06T20:02:54.489Z,16.80
2019-01-06T20:05:41.829Z,16.87
2019-01-06T20:08:17.517Z,16.63
2019-01-06T20:10:59.768Z,19.63
2019-01-06T20:13:46.357Z,19.43
2019-01-06T20:16:32.957Z,19.20
2019-01-06T20:19:02.962Z,21.33
2019-01-06T20:21:49.233Z,20.43
2019-01-06T20:24:31.412Z,23.13
2019-01-06T20:27:21.183Z,21.83
2019-01-06T20:30:11.405Z,18.23
2019-01-06T20:32:52.605Z,21.33
2019-01-06T20:35:24.260Z,19.73
2019-01-06T20:38:06.444Z,19.43
2019-01-06T20:40:42.343Z,20.90
2019-01-06T20:43:13.693Z,19.10
2019-01-06T20:46:01.723Z,18.80
2019-01-06T20:48:31.698Z,19.40
2019-01-06T20:51:04.252Z,19.37
2019-01-06T20:53:50.652Z,19.63
2019-01-06T20:56:20.649Z,19.97
2019-01-06T20:58:50.635Z,19.03
2019-01-06T21:01:20.618Z,19.30
2019-01-06T21:04:06.902Z,18.03
2019-01-06T21:06:38.013Z,17.10
2019-01-06T21:09:14.694Z,17.27
2019-01-06T21:11:44.669Z,16.43
2019-01-06T21:14:23.753Z,17.00
2019-01-06T21:17:05.517Z,17.33
2019-01-06T21:19:36.798Z,15.30
2019-01-06T21:22:13.696Z,18.40
2019-01-06T21:25:01.040Z,17.17
2019-01-06T21:27:31.693Z,17.00
2019-01-06T21:30:13.946Z,16.73
2019-01-06T21:32:43.930Z,15.90
2019-01-06T21:35:13.928Z,17.40
2019-01-06T21:37:45.198Z,16.83
2019-01-06T21:40:29.897Z,19.63
2019-01-06T21:43:02.865Z,18.17
2019-01-06T21:45:35.898Z,17.43
2019-01-06T21:48:08.987Z,16.67
2019-01-06T21:50:47.949Z,16.67
2019-01-06T21:53:17.946Z,18.00
2019-01-06T21:56:04.217Z,17.67
2019-01-06T21:58:44.394Z,19.13
2019-01-06T22:01:23.315Z,18.53
2019-01-06T22:03:56.049Z,18.33
2019-01-06T22:06:42.599Z,18.13
2019-01-06T22:09:31.830Z,17.20
2019-01-06T22:12:14.079Z,17.73
2019-01-06T22:15:00.601Z,17.07
2019-01-06T22:17:36.484Z,18.67
2019-01-06T22:20:07.148Z,20.37
2019-01-06T22:22:37.122Z,17.83
2019-01-06T22:25:16.126Z,17.17
2019-01-06T22:27:46.110Z,18.30
2019-01-06T22:30:16.101Z,16.87
2019-01-06T22:33:02.645Z,15.63
2019-01-06T22:35:48.948Z,16.37
2019-01-06T22:38:25.178Z,17.90
2019-01-06T22:40:55.167Z,17.73
2019-01-06T22:43:25.166Z,17.80
2019-01-06T22:46:01.113Z,17.90
2019-01-06T22:48:46.359Z,18.97
2019-01-06T22:51:19.886Z,15.57
2019-01-06T22:53:55.678Z,17.00
2019-01-06T22:56:37.890Z,16.53
2019-01-06T22:59:07.879Z,17.37
2019-01-06T23:01:46.813Z,16.60
2019-01-06T23:04:17.080Z,17.23
2019-01-06T23:06:50.217Z,19.33
2019-01-06T23:09:20.221Z,17.97
2019-01-06T23:11:59.390Z,15.07
2019-01-06T23:14:29.378Z,17.97
2019-01-06T23:17:15.929Z,18.43
2019-01-06T23:19:51.994Z,18.43
2019-01-06T23:22:36.925Z,19.70
2019-01-06T23:25:22.818Z,19.87
2019-01-06T23:27:55.266Z,19.00
2019-01-06T23:30:43.678Z,18.80
2019-01-06T23:33:29.916Z,20.77
2019-01-06T23:36:15.134Z,19.87
2019-01-06T23:39:01.546Z,18.30
2019-01-06T23:41:36.136Z,19.87
2019-01-06T23:44:11.833Z,20.17
2019-01-06T23:46:41.813Z,19.70
2019-01-06T23:49:17.798Z,20.13
2019-01-06T23:51:53.422Z,20.77
2019-01-06T23:54:23.424Z,20.90
2019-01-06T23:56:56.370Z,19.57
2019-01-06T23:59:26.364Z,20.80
